sensor_id;sensor_type;location;lat;lon;timestamp;pressure;altitude;pressure_sealevel;temperature;humidity
23953;BME280;12163;49.316;6.092;2023-11-21T00:01:04;98785.94;;;10.25;87.26
23953;BME280;12163;49.316;6.092;2023-11-21T00:03:31;98783.25;;;10.25;87.08
23953;BME280;12163;49.316;6.092;2023-11-21T00:05:58;98794.31;;;10.23;86.87
23953;BME280;12163;49.316;6.092;2023-11-21T00:08:24;98786.56;;;10.22;86.62
23953;BME280;12163;49.316;6.092;2023-11-21T00:10:51;98797.63;;;10.20;86.30
23953;BME280;12163;49.316;6.092;2023-11-21T00:13:18;98792.25;;;10.20;86.18
23953;BME280;12163;49.316;6.092;2023-11-21T00:15:44;98793.84;;;10.21;86.28
23953;BME280;12163;49.316;6.092;2023-11-21T00:18:11;98793.06;;;10.21;85.50
23953;BME280;12163;49.316;6.092;2023-11-21T00:20:37;98793.06;;;10.21;85.91
23953;BME280;12163;49.316;6.092;2023-11-21T00:23:04;98789.81;;;10.19;85.44
23953;BME280;12163;49.316;6.092;2023-11-21T00:25:30;98800.13;;;10.17;86.04
23953;BME280;12163;49.316;6.092;2023-11-21T00:27:58;98794.22;;;10.15;86.11
23953;BME280;12163;49.316;6.092;2023-11-21T00:30:24;98798.03;;;10.14;86.11
23953;BME280;12163;49.316;6.092;2023-11-21T00:32:51;98792.63;;;10.14;85.80
23953;BME280;12163;49.316;6.092;2023-11-21T00:35:18;98789.94;;;10.14;85.39
23953;BME280;12163;49.316;6.092;2023-11-21T00:37:44;98795.66;;;10.12;85.39
23953;BME280;12163;49.316;6.092;2023-11-21T00:40:12;98789.44;;;10.12;85.19
23953;BME280;12163;49.316;6.092;2023-11-21T00:42:38;98788.44;;;10.08;85.72
23953;BME280;12163;49.316;6.092;2023-11-21T00:45:06;98794.13;;;10.06;86.14
23953;BME280;12163;49.316;6.092;2023-11-21T00:47:33;98796.03;;;10.06;85.94
23953;BME280;12163;49.316;6.092;2023-11-21T00:50:00;98797.13;;;10.05;86.32
23953;BME280;12163;49.316;6.092;2023-11-21T00:52:27;98793.63;;;10.04;86.06
23953;BME280;12163;49.316;6.092;2023-11-21T00:54:53;98797.75;;;10.02;87.03
23953;BME280;12163;49.316;6.092;2023-11-21T00:57:20;98795.81;;;10.02;86.62
23953;BME280;12163;49.316;6.092;2023-11-21T00:59:46;98794.53;;;10.00;87.01
23953;BME280;12163;49.316;6.092;2023-11-21T01:02:13;98805.88;;;9.97;87.04
23953;BME280;12163;49.316;6.092;2023-11-21T01:04:39;98806.41;;;9.99;86.94
23953;BME280;12163;49.316;6.092;2023-11-21T01:07:06;98803.78;;;9.94;87.04
23953;BME280;12163;49.316;6.092;2023-11-21T01:09:33;98804.78;;;9.98;86.83
23953;BME280;12163;49.316;6.092;2023-11-21T01:12:00;98822.25;;;10.00;86.61
23953;BME280;12163;49.316;6.092;2023-11-21T01:14:27;98815.56;;;9.98;86.62
23953;BME280;12163;49.316;6.092;2023-11-21T01:16:54;98824.22;;;9.95;86.83
23953;BME280;12163;49.316;6.092;2023-11-21T01:19:20;98822.03;;;9.97;86.70
23953;BME280;12163;49.316;6.092;2023-11-21T01:21:47;98819.34;;;9.97;86.98
23953;BME280;12163;49.316;6.092;2023-11-21T01:24:14;98832.31;;;9.95;86.90
23953;BME280;12163;49.316;6.092;2023-11-21T01:26:40;98828.34;;;9.93;86.73
23953;BME280;12163;49.316;6.092;2023-11-21T01:29:07;98835.81;;;9.96;86.38
23953;BME280;12163;49.316;6.092;2023-11-21T01:31:33;98836.81;;;9.99;86.40
23953;BME280;12163;49.316;6.092;2023-11-21T01:34:00;98840.34;;;10.00;86.54
23953;BME280;12163;49.316;6.092;2023-11-21T01:36:31;98830.34;;;10.00;85.84
23953;BME280;12163;49.316;6.092;2023-11-21T01:39:00;98842.47;;;10.03;85.59
23953;BME280;12163;49.316;6.092;2023-11-21T01:41:27;98840.25;;;10.05;85.91
23953;BME280;12163;49.316;6.092;2023-11-21T01:43:55;98842.34;;;10.08;85.60
23953;BME280;12163;49.316;6.092;2023-11-21T01:46:22;98858.03;;;10.06;85.17
23953;BME280;12163;49.316;6.092;2023-11-21T01:48:49;98846.16;;;10.07;85.18
23953;BME280;12163;49.316;6.092;2023-11-21T01:51:17;98849.94;;;10.06;85.24
23953;BME280;12163;49.316;6.092;2023-11-21T01:53:45;98848.34;;;10.05;84.94
23953;BME280;12163;49.316;6.092;2023-11-21T01:56:13;98846.75;;;10.04;84.40
23953;BME280;12163;49.316;6.092;2023-11-21T01:58:40;98842.97;;;10.05;84.49
23953;BME280;12163;49.316;6.092;2023-11-21T02:01:08;98841.38;;;10.04;84.23
23953;BME280;12163;49.316;6.092;2023-11-21T02:03:36;98849.44;;;10.04;84.16
23953;BME280;12163;49.316;6.092;2023-11-21T02:06:03;98854.91;;;9.99;83.61
23953;BME280;12163;49.316;6.092;2023-11-21T02:08:29;98864.66;;;9.95;84.08
23953;BME280;12163;49.316;6.092;2023-11-21T02:10:56;98859.59;;;9.94;83.84
23953;BME280;12163;49.316;6.092;2023-11-21T02:13:24;98865.25;;;9.92;83.46
23953;BME280;12163;49.316;6.092;2023-11-21T02:15:50;98870.38;;;9.94;83.53
23953;BME280;12163;49.316;6.092;2023-11-21T02:18:18;98873.06;;;9.94;83.32
23953;BME280;12163;49.316;6.092;2023-11-21T02:20:45;98874.66;;;9.95;83.66
23953;BME280;12163;49.316;6.092;2023-11-21T02:23:13;98875.94;;;9.97;83.84
23953;BME280;12163;49.316;6.092;2023-11-21T02:25:39;98872.69;;;10.00;83.48
23953;BME280;12163;49.316;6.092;2023-11-21T02:28:06;98872.69;;;10.00;83.15
23953;BME280;12163;49.316;6.092;2023-11-21T02:30:33;98885.09;;;10.01;83.19
23953;BME280;12163;49.316;6.092;2023-11-21T02:33:01;98871.09;;;9.99;83.04
23953;BME280;12163;49.316;6.092;2023-11-21T02:35:28;98879.22;;;9.94;83.30
23953;BME280;12163;49.316;6.092;2023-11-21T02:37:58;98878.22;;;9.90;83.17
23953;BME280;12163;49.316;6.092;2023-11-21T02:40:24;98878.81;;;9.87;83.33
23953;BME280;12163;49.316;6.092;2023-11-21T02:42:53;98886.41;;;9.85;83.32
23953;BME280;12163;49.316;6.092;2023-11-21T02:45:20;98872.94;;;9.85;83.51
23953;BME280;12163;49.316;6.092;2023-11-21T02:47:50;98875.63;;;9.85;83.01
23953;BME280;12163;49.316;6.092;2023-11-21T02:50:20;98885.31;;;9.86;83.13
23953;BME280;12163;49.316;6.092;2023-11-21T02:52:46;98869.44;;;9.85;82.60
23953;BME280;12163;49.316;6.092;2023-11-21T02:55:13;98880.72;;;9.87;82.64
23953;BME280;12163;49.316;6.092;2023-11-21T02:57:40;98889.31;;;9.89;82.26
23953;BME280;12163;49.316;6.092;2023-11-21T03:00:07;98889.00;;;9.90;81.83
23953;BME280;12163;49.316;6.092;2023-11-21T03:02:34;98881.44;;;9.92;81.43
23953;BME280;12163;49.316;6.092;2023-11-21T03:05:06;98891.22;;;9.88;81.92
23953;BME280;12163;49.316;6.092;2023-11-21T03:07:33;98889.50;;;9.92;81.28
23953;BME280;12163;49.316;6.092;2023-11-21T03:09:59;98878.72;;;9.92;81.64
23953;BME280;12163;49.316;6.092;2023-11-21T03:12:26;98878.22;;;9.90;81.89
23953;BME280;12163;49.316;6.092;2023-11-21T03:14:52;98882.03;;;9.89;81.55
23953;BME280;12163;49.316;6.092;2023-11-21T03:17:20;98883.63;;;9.90;81.21
23953;BME280;12163;49.316;6.092;2023-11-21T03:19:47;98885.81;;;9.88;81.44
23953;BME280;12163;49.316;6.092;2023-11-21T03:22:14;98889.59;;;9.87;81.26
23953;BME280;12163;49.316;6.092;2023-11-21T03:24:40;98895.00;;;9.87;80.83
23953;BME280;12163;49.316;6.092;2023-11-21T03:27:07;98895.50;;;9.89;80.62
23953;BME280;12163;49.316;6.092;2023-11-21T03:29:34;98893.41;;;9.86;80.41
23953;BME280;12163;49.316;6.092;2023-11-21T03:32:01;98905.78;;;9.87;80.64
23953;BME280;12163;49.316;6.092;2023-11-21T03:34:28;98905.78;;;9.87;80.43
23953;BME280;12163;49.316;6.092;2023-11-21T03:36:55;98912.75;;;9.88;80.92
23953;BME280;12163;49.316;6.092;2023-11-21T03:39:22;98914.97;;;9.86;80.57
23953;BME280;12163;49.316;6.092;2023-11-21T03:41:49;98922.53;;;9.84;80.45
23953;BME280;12163;49.316;6.092;2023-11-21T03:44:15;98920.94;;;9.83;80.61
23953;BME280;12163;49.316;6.092;2023-11-21T03:46:42;98924.72;;;9.82;80.53
23953;BME280;12163;49.316;6.092;2023-11-21T03:49:09;98924.72;;;9.82;80.96
23953;BME280;12163;49.316;6.092;2023-11-21T03:51:37;98909.16;;;9.79;80.69
23953;BME280;12163;49.316;6.092;2023-11-21T03:54:03;98910.75;;;9.80;80.59
23953;BME280;12163;49.316;6.092;2023-11-21T03:56:30;98926.41;;;9.78;80.63
23953;BME280;12163;49.316;6.092;2023-11-21T03:58:57;98912.72;;;9.75;80.74
23953;BME280;12163;49.316;6.092;2023-11-21T04:01:24;98923.78;;;9.73;80.65
23953;BME280;12163;49.316;6.092;2023-11-21T04:03:51;98928.59;;;9.76;80.58
23953;BME280;12163;49.316;6.092;2023-11-21T04:06:18;98927.50;;;9.77;80.50
23953;BME280;12163;49.316;6.092;2023-11-21T04:08:45;98928.59;;;9.76;80.15
23953;BME280;12163;49.316;6.092;2023-11-21T04:11:12;98936.09;;;9.79;80.46
23953;BME280;12163;49.316;6.092;2023-11-21T04:13:40;98943.09;;;9.80;80.83
23953;BME280;12163;49.316;6.092;2023-11-21T04:16:07;98937.09;;;9.83;80.69
23953;BME280;12163;49.316;6.092;2023-11-21T04:18:38;98942.50;;;9.83;80.65
23953;BME280;12163;49.316;6.092;2023-11-21T04:21:05;98934.91;;;9.85;80.82
23953;BME280;12163;49.316;6.092;2023-11-21T04:23:32;98939.50;;;9.85;80.99
23953;BME280;12163;49.316;6.092;2023-11-21T04:25:59;98942.50;;;9.83;80.58
23953;BME280;12163;49.316;6.092;2023-11-21T04:28:26;98944.69;;;9.81;80.98
23953;BME280;12163;49.316;6.092;2023-11-21T04:30:53;98955.47;;;9.81;80.63
23953;BME280;12163;49.316;6.092;2023-11-21T04:33:19;98960.84;;;9.81;80.22
23953;BME280;12163;49.316;6.092;2023-11-21T04:35:46;98965.16;;;9.82;80.78
23953;BME280;12163;49.316;6.092;2023-11-21T04:38:12;98962.44;;;9.82;80.78
23953;BME280;12163;49.316;6.092;2023-11-21T04:40:39;98959.44;;;9.84;80.60
23953;BME280;12163;49.316;6.092;2023-11-21T04:43:06;98973.72;;;9.84;80.68
23953;BME280;12163;49.316;6.092;2023-11-21T04:45:32;98970.53;;;9.82;80.58
23953;BME280;12163;49.316;6.092;2023-11-21T04:47:59;98973.72;;;9.84;80.68
23953;BME280;12163;49.316;6.092;2023-11-21T04:50:25;98978.03;;;9.85;80.22
23953;BME280;12163;49.316;6.092;2023-11-21T04:52:55;98972.91;;;9.84;80.25
23953;BME280;12163;49.316;6.092;2023-11-21T04:55:21;98976.44;;;9.84;80.21
23953;BME280;12163;49.316;6.092;2023-11-21T04:57:48;98978.03;;;9.85;80.66
23953;BME280;12163;49.316;6.092;2023-11-21T05:00:14;98978.03;;;9.85;80.77
23953;BME280;12163;49.316;6.092;2023-11-21T05:02:42;98982.31;;;9.86;80.72
23953;BME280;12163;49.316;6.092;2023-11-21T05:05:10;98979.63;;;9.86;80.59
23953;BME280;12163;49.316;6.092;2023-11-21T05:07:38;98980.63;;;9.90;80.42
23953;BME280;12163;49.316;6.092;2023-11-21T05:10:05;98980.63;;;9.90;80.16
23953;BME280;12163;49.316;6.092;2023-11-21T05:12:39;98990.81;;;9.93;80.35
23953;BME280;12163;49.316;6.092;2023-11-21T05:15:07;98981.66;;;9.94;80.30
23953;BME280;12163;49.316;6.092;2023-11-21T05:17:38;98984.84;;;9.96;80.19
23953;BME280;12163;49.316;6.092;2023-11-21T05:20:14;98982.13;;;10.01;80.00
23953;BME280;12163;49.316;6.092;2023-11-21T05:22:44;98983.13;;;10.05;80.05
23953;BME280;12163;49.316;6.092;2023-11-21T05:25:11;98986.31;;;10.07;79.48
23953;BME280;12163;49.316;6.092;2023-11-21T05:27:38;98982.75;;;10.11;79.47
23953;BME280;12163;49.316;6.092;2023-11-21T05:30:05;98988.16;;;10.11;79.35
23953;BME280;12163;49.316;6.092;2023-11-21T05:32:32;98986.22;;;10.12;79.63
23953;BME280;12163;49.316;6.092;2023-11-21T05:34:59;98987.31;;;10.11;79.71
23953;BME280;12163;49.316;6.092;2023-11-21T05:37:26;98988.94;;;10.12;79.07
23953;BME280;12163;49.316;6.092;2023-11-21T05:39:53;98992.94;;;10.14;79.24
23953;BME280;12163;49.316;6.092;2023-11-21T05:42:22;98996.41;;;10.15;79.14
23953;BME280;12163;49.316;6.092;2023-11-21T05:44:49;99006.59;;;10.18;79.08
23953;BME280;12163;49.316;6.092;2023-11-21T05:47:16;99007.41;;;10.18;79.16
23953;BME280;12163;49.316;6.092;2023-11-21T05:49:43;99016.84;;;10.21;79.06
23953;BME280;12163;49.316;6.092;2023-11-21T05:52:11;99016.13;;;10.29;79.34
23953;BME280;12163;49.316;6.092;2023-11-21T05:54:38;99014.22;;;10.75;79.99
23953;BME280;12163;49.316;6.092;2023-11-21T05:57:04;99017.91;;;11.19;79.75
23953;BME280;12163;49.316;6.092;2023-11-21T05:59:31;99017.56;;;11.48;77.80
23953;BME280;12163;49.316;6.092;2023-11-21T06:01:57;99020.38;;;11.56;76.60
23953;BME280;12163;49.316;6.092;2023-11-21T06:04:25;99016.19;;;11.85;76.76
23953;BME280;12163;49.316;6.092;2023-11-21T06:06:52;99023.63;;;12.02;74.84
23953;BME280;12163;49.316;6.092;2023-11-21T06:09:19;99023.09;;;12.13;73.83
23953;BME280;12163;49.316;6.092;2023-11-21T06:11:47;99023.97;;;12.22;75.36
23953;BME280;12163;49.316;6.092;2023-11-21T06:14:13;99028.97;;;12.37;75.55
23953;BME280;12163;49.316;6.092;2023-11-21T06:16:41;99036.22;;;12.50;75.36
23953;BME280;12163;49.316;6.092;2023-11-21T06:19:08;99035.34;;;12.63;74.96
23953;BME280;12163;49.316;6.092;2023-11-21T06:21:34;99042.72;;;12.71;73.20
23953;BME280;12163;49.316;6.092;2023-11-21T06:24:01;99041.16;;;12.48;71.84
23953;BME280;12163;49.316;6.092;2023-11-21T06:26:28;99054.19;;;12.46;72.15
23953;BME280;12163;49.316;6.092;2023-11-21T06:28:55;99050.97;;;12.66;72.63
23953;BME280;12163;49.316;6.092;2023-11-21T06:31:22;99051.31;;;12.73;71.03
23953;BME280;12163;49.316;6.092;2023-11-21T06:33:49;99054.28;;;12.63;71.46
23953;BME280;12163;49.316;6.092;2023-11-21T06:36:18;99056.25;;;12.71;71.81
23953;BME280;12163;49.316;6.092;2023-11-21T06:38:45;99059.59;;;12.68;70.29
23953;BME280;12163;49.316;6.092;2023-11-21T06:41:12;99057.13;;;12.58;70.74
23953;BME280;12163;49.316;6.092;2023-11-21T06:43:42;99072.53;;;12.49;70.95
23953;BME280;12163;49.316;6.092;2023-11-21T06:46:13;99067.84;;;12.41;70.28
23953;BME280;12163;49.316;6.092;2023-11-21T06:48:43;99082.59;;;12.13;70.02
23953;BME280;12163;49.316;6.092;2023-11-21T06:51:10;99088.75;;;12.05;71.59
23953;BME280;12163;49.316;6.092;2023-11-21T06:53:37;99088.19;;;11.81;71.54
23953;BME280;12163;49.316;6.092;2023-11-21T06:56:14;99095.41;;;11.73;72.10
23953;BME280;12163;49.316;6.092;2023-11-21T06:58:41;99097.13;;;11.69;72.30
23953;BME280;12163;49.316;6.092;2023-11-21T07:01:08;99100.22;;;11.49;72.27
23953;BME280;12163;49.316;6.092;2023-11-21T07:03:34;99102.81;;;11.40;72.03
23953;BME280;12163;49.316;6.092;2023-11-21T07:06:04;99093.31;;;11.43;73.28
23953;BME280;12163;49.316;6.092;2023-11-21T07:08:30;99106.44;;;11.36;72.77
23953;BME280;12163;49.316;6.092;2023-11-21T07:10:57;99120.25;;;11.21;72.22
23953;BME280;12163;49.316;6.092;2023-11-21T07:13:24;99131.31;;;11.06;74.08
23953;BME280;12163;49.316;6.092;2023-11-21T07:15:50;99136.22;;;11.17;74.10
23953;BME280;12163;49.316;6.092;2023-11-21T07:18:17;99134.59;;;11.03;73.00
23953;BME280;12163;49.316;6.092;2023-11-21T07:20:44;99137.00;;;10.91;73.57
23953;BME280;12163;49.316;6.092;2023-11-21T07:23:10;99143.97;;;10.78;74.52
23953;BME280;12163;49.316;6.092;2023-11-21T07:25:37;99150.06;;;10.84;75.21
23953;BME280;12163;49.316;6.092;2023-11-21T07:28:03;99153.44;;;10.76;74.24
23953;BME280;12163;49.316;6.092;2023-11-21T07:30:31;99159.59;;;10.63;75.04
23953;BME280;12163;49.316;6.092;2023-11-21T07:32:58;99149.84;;;10.67;75.84
23953;BME280;12163;49.316;6.092;2023-11-21T07:35:25;99152.25;;;10.82;75.94
23953;BME280;12163;49.316;6.092;2023-11-21T07:37:53;99161.72;;;11.11;76.56
23953;BME280;12163;49.316;6.092;2023-11-21T07:40:19;99158.44;;;11.41;75.35
23953;BME280;12163;49.316;6.092;2023-11-21T07:42:46;99165.31;;;11.66;75.24
23953;BME280;12163;49.316;6.092;2023-11-21T07:45:12;99164.50;;;11.65;73.60
23953;BME280;12163;49.316;6.092;2023-11-21T07:47:39;99167.88;;;11.44;72.94
23953;BME280;12163;49.316;6.092;2023-11-21T07:50:06;99175.25;;;11.25;73.60
23953;BME280;12163;49.316;6.092;2023-11-21T07:52:34;99175.22;;;11.11;74.20
23953;BME280;12163;49.316;6.092;2023-11-21T07:55:00;99176.81;;;10.99;74.13
23953;BME280;12163;49.316;6.092;2023-11-21T07:57:28;99184.00;;;10.90;74.92
23953;BME280;12163;49.316;6.092;2023-11-21T07:59:54;99186.25;;;10.83;74.77
23953;BME280;12163;49.316;6.092;2023-11-21T08:02:21;99195.53;;;10.77;75.40
23953;BME280;12163;49.316;6.092;2023-11-21T08:04:48;99199.91;;;10.73;75.84
23953;BME280;12163;49.316;6.092;2023-11-21T08:07:17;99196.50;;;10.67;75.54
23953;BME280;12163;49.316;6.092;2023-11-21T08:09:44;99203.25;;;10.65;75.87
23953;BME280;12163;49.316;6.092;2023-11-21T08:12:10;99205.47;;;10.63;76.26
23953;BME280;12163;49.316;6.092;2023-11-21T08:14:38;99209.25;;;10.62;76.87
23953;BME280;12163;49.316;6.092;2023-11-21T08:17:05;99211.44;;;10.60;76.50
23953;BME280;12163;49.316;6.092;2023-11-21T08:19:33;99207.16;;;10.59;77.19
23953;BME280;12163;49.316;6.092;2023-11-21T08:21:59;99222.25;;;10.60;76.74
23953;BME280;12163;49.316;6.092;2023-11-21T08:24:26;99220.34;;;10.60;76.71
23953;BME280;12163;49.316;6.092;2023-11-21T08:26:53;99228.22;;;10.57;77.02
23953;BME280;12163;49.316;6.092;2023-11-21T08:29:20;99230.41;;;10.55;77.40
23953;BME280;12163;49.316;6.092;2023-11-21T08:31:48;99227.22;;;10.53;77.33
23953;BME280;12163;49.316;6.092;2023-11-21T08:34:14;99230.41;;;10.55;77.25
23953;BME280;12163;49.316;6.092;2023-11-21T08:36:43;99233.63;;;10.57;77.11
23953;BME280;12163;49.316;6.092;2023-11-21T08:39:09;99229.31;;;10.56;76.37
23953;BME280;12163;49.316;6.092;2023-11-21T08:41:36;99233.63;;;10.57;76.89
23953;BME280;12163;49.316;6.092;2023-11-21T08:44:03;99231.44;;;10.59;76.60
23953;BME280;12163;49.316;6.092;2023-11-21T08:46:33;99236.03;;;10.58;76.63
23953;BME280;12163;49.316;6.092;2023-11-21T08:49:01;99229.81;;;10.58;76.43
23953;BME280;12163;49.316;6.092;2023-11-21T08:51:27;99240.53;;;10.63;76.73
23953;BME280;12163;49.316;6.092;2023-11-21T08:53:54;99235.66;;;10.65;76.39
23953;BME280;12163;49.316;6.092;2023-11-21T08:56:21;99239.97;;;10.66;75.82
23953;BME280;12163;49.316;6.092;2023-11-21T08:58:47;99237.28;;;10.66;76.12
23953;BME280;12163;49.316;6.092;2023-11-21T09:01:14;99249.69;;;10.67;76.41
23953;BME280;12163;49.316;6.092;2023-11-21T09:03:41;99242.69;;;10.66;76.27
23953;BME280;12163;49.316;6.092;2023-11-21T09:06:07;99250.47;;;10.67;75.76
23953;BME280;12163;49.316;6.092;2023-11-21T09:08:36;99251.28;;;10.68;76.04
23953;BME280;12163;49.316;6.092;2023-11-21T09:11:03;99259.28;;;10.73;76.12
23953;BME280;12163;49.316;6.092;2023-11-21T09:13:30;99252.50;;;10.75;75.70
23953;BME280;12163;49.316;6.092;2023-11-21T09:15:56;99265.63;;;10.82;75.89
23953;BME280;12163;49.316;6.092;2023-11-21T09:18:23;99267.16;;;10.88;75.87
23953;BME280;12163;49.316;6.092;2023-11-21T09:20:49;99273.34;;;10.88;75.11
23953;BME280;12163;49.316;6.092;2023-11-21T09:23:16;99275.78;;;10.90;75.43
23953;BME280;12163;49.316;6.092;2023-11-21T09:25:43;99268.97;;;10.92;75.78
23953;BME280;12163;49.316;6.092;2023-11-21T09:28:13;99261.69;;;10.93;75.73
23953;BME280;12163;49.316;6.092;2023-11-21T09:30:39;99276.97;;;10.97;75.58
23953;BME280;12163;49.316;6.092;2023-11-21T09:33:06;99281.28;;;10.98;75.19
23953;BME280;12163;49.316;6.092;2023-11-21T09:35:33;99283.41;;;11.01;74.80
23953;BME280;12163;49.316;6.092;2023-11-21T09:37:59;99291.22;;;11.03;75.44
23953;BME280;12163;49.316;6.092;2023-11-21T09:40:28;99296.59;;;11.03;74.74
23953;BME280;12163;49.316;6.092;2023-11-21T09:42:55;99301.22;;;11.02;74.97
23953;BME280;12163;49.316;6.092;2023-11-21T09:45:27;99309.50;;;11.06;75.49
23953;BME280;12163;49.316;6.092;2023-11-21T09:47:55;99305.34;;;11.13;75.16
23953;BME280;12163;49.316;6.092;2023-11-21T09:50:23;99302.88;;;11.17;74.59
23953;BME280;12163;49.316;6.092;2023-11-21T09:55:34;99306.59;;;11.21;74.67
23953;BME280;12163;49.316;6.092;2023-11-21T09:58:05;99309.50;;;11.24;74.52
23953;BME280;12163;49.316;6.092;2023-11-21T10:00:42;99302.19;;;11.25;73.79
23953;BME280;12163;49.316;6.092;2023-11-21T10:03:10;99305.91;;;11.29;74.03
23953;BME280;12163;49.316;6.092;2023-11-21T10:05:37;99308.53;;;11.34;74.14
23953;BME280;12163;49.316;6.092;2023-11-21T10:08:08;99306.34;;;11.36;73.76
23953;BME280;12163;49.316;6.092;2023-11-21T10:10:46;99314.44;;;11.36;73.52
23953;BME280;12163;49.316;6.092;2023-11-21T10:13:17;99314.38;;;11.41;73.75
23953;BME280;12163;49.316;6.092;2023-11-21T10:15:49;99313.75;;;11.44;73.45
23953;BME280;12163;49.316;6.092;2023-11-21T10:18:16;99316.38;;;11.49;73.39
23953;BME280;12163;49.316;6.092;2023-11-21T10:20:44;99309.81;;;11.55;72.50
23953;BME280;12163;49.316;6.092;2023-11-21T10:23:21;99312.94;;;11.62;72.53
23953;BME280;12163;49.316;6.092;2023-11-21T10:25:51;99317.25;;;11.63;71.73
23953;BME280;12163;49.316;6.092;2023-11-21T10:28:18;99319.06;;;11.67;71.71
23953;BME280;12163;49.316;6.092;2023-11-21T10:30:47;99314.84;;;11.74;71.53
23953;BME280;12163;49.316;6.092;2023-11-21T10:33:13;99311.47;;;11.82;71.82
23953;BME280;12163;49.316;6.092;2023-11-21T10:38:13;99318.28;;;11.93;70.25
23953;BME280;12163;49.316;6.092;2023-11-21T10:40:40;99321.50;;;11.95;68.83
23953;BME280;12163;49.316;6.092;2023-11-21T10:43:09;99327.94;;;11.99;69.10
23953;BME280;12163;49.316;6.092;2023-11-21T10:45:40;99325.91;;;12.05;69.19
23953;BME280;12163;49.316;6.092;2023-11-21T10:48:08;99325.50;;;12.11;68.02
23953;BME280;12163;49.316;6.092;2023-11-21T10:50:35;99321.72;;;12.12;67.39
23953;BME280;12163;49.316;6.092;2023-11-21T10:53:05;99322.31;;;12.09;67.63
23953;BME280;12163;49.316;6.092;2023-11-21T10:55:32;99317.19;;;12.08;67.46
23953;BME280;12163;49.316;6.092;2023-11-21T10:58:03;99321.00;;;12.07;66.25
23953;BME280;12163;49.316;6.092;2023-11-21T11:00:32;99320.81;;;12.03;66.29
23953;BME280;12163;49.316;6.092;2023-11-21T11:03:00;99322.69;;;12.03;65.51
23953;BME280;12163;49.316;6.092;2023-11-21T11:05:28;99321.00;;;12.07;65.73
23953;BME280;12163;49.316;6.092;2023-11-21T11:08:01;99320.09;;;12.11;65.89
23953;BME280;12163;49.316;6.092;2023-11-21T11:10:31;99325.13;;;12.18;66.85
23953;BME280;12163;49.316;6.092;2023-11-21T11:12:58;99323.41;;;12.22;67.80
23953;BME280;12163;49.316;6.092;2023-11-21T11:15:26;99322.69;;;12.30;68.36
23953;BME280;12163;49.316;6.092;2023-11-21T11:17:54;99320.91;;;12.39;68.26
23953;BME280;12163;49.316;6.092;2023-11-21T11:20:32;99315.69;;;12.42;66.70
23953;BME280;12163;49.316;6.092;2023-11-21T11:23:43;99315.09;;;12.45;67.09
23953;BME280;12163;49.316;6.092;2023-11-21T11:26:22;99314.66;;;12.52;66.71
23953;BME280;12163;49.316;6.092;2023-11-21T11:29:10;99317.69;;;12.50;66.67
23953;BME280;12163;49.316;6.092;2023-11-21T11:34:41;99315.97;;;12.54;66.73
23953;BME280;12163;49.316;6.092;2023-11-21T11:37:11;99316.47;;;12.56;66.76
23953;BME280;12163;49.316;6.092;2023-11-21T11:39:41;99318.69;;;12.54;67.42
23953;BME280;12163;49.316;6.092;2023-11-21T11:42:12;99319.66;;;12.58;66.80
23953;BME280;12163;49.316;6.092;2023-11-21T11:47:30;99321.38;;;12.54;66.29
23953;BME280;12163;49.316;6.092;2023-11-21T11:52:43;99323.72;;;12.47;66.77
23953;BME280;12163;49.316;6.092;2023-11-21T11:55:12;99324.09;;;12.54;66.74
23953;BME280;12163;49.316;6.092;2023-11-21T11:57:41;99324.91;;;12.55;67.49
23953;BME280;12163;49.316;6.092;2023-11-21T12:02:48;99329.88;;;12.61;66.86
23953;BME280;12163;49.316;6.092;2023-11-21T12:05:17;99322.66;;;12.70;67.58
23953;BME280;12163;49.316;6.092;2023-11-21T12:07:57;99317.75;;;12.72;66.46
23953;BME280;12163;49.316;6.092;2023-11-21T12:10:27;99335.59;;;12.73;66.68
23953;BME280;12163;49.316;6.092;2023-11-21T12:12:54;99333.88;;;12.77;67.21
23953;BME280;12163;49.316;6.092;2023-11-21T12:15:22;99332.66;;;12.83;67.25
23953;BME280;12163;49.316;6.092;2023-11-21T12:17:50;99335.28;;;12.88;66.99
23953;BME280;12163;49.316;6.092;2023-11-21T12:20:22;99332.25;;;12.90;67.01
23953;BME280;12163;49.316;6.092;2023-11-21T12:22:51;99335.06;;;12.85;65.96
23953;BME280;12163;49.316;6.092;2023-11-21T12:25:22;99337.69;;;12.76;65.92
23953;BME280;12163;49.316;6.092;2023-11-21T12:27:51;99339.41;;;12.72;67.05
23953;BME280;12163;49.316;6.092;2023-11-21T12:30:20;99347.53;;;12.72;66.73
23953;BME280;12163;49.316;6.092;2023-11-21T12:32:49;99340.53;;;12.71;67.04
23953;BME280;12163;49.316;6.092;2023-11-21T12:35:22;99355.66;;;12.72;67.49
23953;BME280;12163;49.316;6.092;2023-11-21T12:37:49;99350.13;;;12.77;66.75
23953;BME280;12163;49.316;6.092;2023-11-21T12:40:18;99353.31;;;12.79;67.20
23953;BME280;12163;49.316;6.092;2023-11-21T12:42:46;99353.31;;;12.79;65.85
23953;BME280;12163;49.316;6.092;2023-11-21T12:47:51;99361.97;;;12.68;66.03
23953;BME280;12163;49.316;6.092;2023-11-21T12:50:19;99365.00;;;12.66;65.68
23953;BME280;12163;49.316;6.092;2023-11-21T12:52:51;99366.59;;;12.67;66.61
23953;BME280;12163;49.316;6.092;2023-11-21T12:55:18;99366.59;;;12.67;66.52
23953;BME280;12163;49.316;6.092;2023-11-21T12:57:57;99365.56;;;12.63;66.35
23953;BME280;12163;49.316;6.092;2023-11-21T13:00:31;99363.97;;;12.62;66.60
23953;BME280;12163;49.316;6.092;2023-11-21T13:02:59;99371.59;;;12.60;66.15
23953;BME280;12163;49.316;6.092;2023-11-21T13:05:27;99378.00;;;12.64;66.22
23953;BME280;12163;49.316;6.092;2023-11-21T13:07:56;99380.22;;;12.62;66.21
23953;BME280;12163;49.316;6.092;2023-11-21T13:10:25;99380.22;;;12.62;66.37
23953;BME280;12163;49.316;6.092;2023-11-21T13:12:53;99379.13;;;12.63;66.14
23953;BME280;12163;49.316;6.092;2023-11-21T13:15:21;99373.63;;;12.68;65.86
23953;BME280;12163;49.316;6.092;2023-11-21T13:17:47;99374.00;;;12.75;66.93
23953;BME280;12163;49.316;6.092;2023-11-21T13:20:15;99379.78;;;12.82;65.94
23953;BME280;12163;49.316;6.092;2023-11-21T13:22:54;99378.19;;;12.81;65.91
23953;BME280;12163;49.316;6.092;2023-11-21T13:25:23;99376.97;;;12.87;65.71